Time;durP1;ratioP1;P1;durP2;ratioP2;P2;SDS_P1;SDS_P2;PMS_P1;PMS_P2;Temp;Humidity;BMP_temperature;BMP_pressure;BME280_temperature;BME280_humidity;BME280_pressure;Samples;Min_cycle;Max_cycle;Signal;HPM_P1;HPM_P2
2023/08/17 00:02:55;;;;;;;7.60;5.55;;;;;;;-140.66;100.00;55571.53;5136330;27;20081;-69
2023/08/17 00:06:40;;;;;;;9.40;5.60;;;;;;;-140.66;100.00;55571.53;5136558;27;20111;-72
2023/08/17 00:10:24;;;;;;;9.25;5.45;;;;;;;-140.66;100.00;55571.53;5136575;27;20468;-72
2023/08/17 00:14:10;;;;;;;10.93;6.05;;;;;;;-140.66;100.00;55571.53;5135972;27;20350;-72
2023/08/17 00:17:54;;;;;;;7.43;5.47;;;;;;;-140.66;100.00;55571.53;5135708;27;20023;-71
2023/08/17 00:21:38;;;;;;;7.53;5.97;;;;;;;-140.66;100.00;55571.53;5138005;27;20031;-73
2023/08/17 00:25:22;;;;;;;7.00;5.55;;;;;;;-140.66;100.00;55571.53;5139085;27;20114;-71
2023/08/17 00:29:06;;;;;;;7.53;5.97;;;;;;;-140.66;100.00;55571.53;5137824;27;20027;-73
2023/08/17 00:32:51;;;;;;;7.80;5.82;;;;;;;-140.66;100.00;55571.53;5140408;27;20019;-72
2023/08/17 00:36:35;;;;;;;8.10;5.95;;;;;;;-140.66;100.00;55571.53;5142106;27;20025;-71
2023/08/17 00:40:19;;;;;;;8.05;5.70;;;;;;;-140.66;100.00;55571.53;5138258;27;20023;-70
2023/08/17 00:44:04;;;;;;;9.80;6.43;;;;;;;-140.66;100.00;55571.53;5146376;27;20027;-71
2023/08/17 00:47:48;;;;;;;10.75;6.75;;;;;;;-140.66;100.00;55571.53;5144966;27;20059;-71
2023/08/17 00:51:33;;;;;;;11.43;6.07;;;;;;;-140.66;100.00;55571.53;5142312;27;20027;-71
2023/08/17 00:55:22;;;;;;;6.60;5.72;;;;;;;-140.66;100.00;55571.53;5136017;27;20094;-71
2023/08/17 00:59:06;;;;;;;10.57;6.32;;;;;;;-140.66;100.00;55571.53;5120487;27;20023;-72
2023/08/17 01:02:52;;;;;;;7.53;5.75;;;;;;;-140.66;100.00;55571.53;5135301;27;20053;-72
2023/08/17 01:06:36;;;;;;;7.97;5.80;;;;;;;-140.66;100.00;55571.53;5135215;27;20090;-71
2023/08/17 01:10:20;;;;;;;11.50;6.40;;;;;;;-140.66;100.00;55571.53;5134588;27;20141;-72
2023/08/17 01:14:15;;;;;;;11.77;6.03;;;;;;;-140.66;100.00;55571.53;5135286;27;20030;-72
2023/08/17 01:18:14;;;;;;;11.43;6.53;;;;;;;-140.66;100.00;55571.53;5134783;27;20023;-71
2023/08/17 01:22:03;;;;;;;10.55;6.30;;;;;;;-140.66;100.00;55571.53;5135400;27;20076;-71
2023/08/17 01:25:47;;;;;;;11.57;6.35;;;;;;;-140.66;100.00;55571.53;5135083;27;20046;-71
2023/08/17 01:29:32;;;;;;;8.85;6.15;;;;;;;-140.66;100.00;55571.53;5134090;27;20042;-71
2023/08/17 01:33:31;;;;;;;8.43;6.22;;;;;;;-140.66;100.00;55571.53;5135642;27;20441;-71
2023/08/17 01:37:21;;;;;;;11.45;6.38;;;;;;;-140.66;100.00;55571.53;5133907;27;20102;-71
2023/08/17 01:41:12;;;;;;;9.88;6.32;;;;;;;-140.66;100.00;55571.53;5134436;27;20054;-70
2023/08/17 01:44:57;;;;;;;11.57;7.00;;;;;;;-140.66;100.00;55571.53;5134532;27;20042;-71
2023/08/17 01:48:42;;;;;;;9.27;6.70;;;;;;;-140.66;100.00;55571.53;5134851;27;20043;-71
2023/08/17 01:52:27;;;;;;;9.77;6.20;;;;;;;-140.66;100.00;55571.53;5134748;27;20055;-71
2023/08/17 01:56:11;;;;;;;10.02;6.82;;;;;;;-140.66;100.00;55571.53;5135175;28;20083;-70
2023/08/17 01:59:56;;;;;;;9.70;6.22;;;;;;;-140.66;100.00;55571.53;5135493;27;20023;-71
2023/08/17 02:03:40;;;;;;;9.10;6.38;;;;;;;-140.66;100.00;55571.53;5135502;28;20063;-70
2023/08/17 02:07:24;;;;;;;9.45;6.40;;;;;;;-140.66;100.00;55571.53;5134252;28;20031;-70
2023/08/17 02:11:10;;;;;;;9.90;6.80;;;;;;;-140.66;100.00;55571.53;5133703;28;20037;-71
2023/08/17 02:14:54;;;;;;;11.82;7.20;;;;;;;-140.66;100.00;55571.53;5134206;28;20039;-71
2023/08/17 02:18:38;;;;;;;9.55;6.10;;;;;;;-140.66;100.00;55571.53;5134244;28;20111;-71
2023/08/17 02:22:22;;;;;;;10.55;7.47;;;;;;;-140.66;100.00;55571.53;5134381;28;20164;-71
2023/08/17 02:26:06;;;;;;;8.80;6.90;;;;;;;-140.66;100.00;55571.53;5134038;28;20533;-71
2023/08/17 02:29:51;;;;;;;8.65;6.90;;;;;;;-140.66;100.00;55571.53;5134376;28;20079;-72
2023/08/17 02:33:36;;;;;;;9.32;6.88;;;;;;;-140.66;100.00;55571.53;5134112;28;20349;-71
2023/08/17 02:37:21;;;;;;;12.38;6.40;;;;;;;-140.66;100.00;55571.53;5137796;27;20346;-71
2023/08/17 02:41:05;;;;;;;9.30;7.10;;;;;;;-140.66;100.00;55571.53;5138326;27;20041;-71
2023/08/17 02:44:49;;;;;;;14.82;7.15;;;;;;;-140.66;100.00;55571.53;5138259;27;20027;-71
2023/08/17 02:48:34;;;;;;;10.18;7.20;;;;;;;-140.66;100.00;55571.53;5137084;27;20111;-71
2023/08/17 02:52:18;;;;;;;28.95;8.98;;;;;;;-140.66;100.00;55571.53;5138480;27;20394;-70
2023/08/17 02:56:02;;;;;;;10.68;6.97;;;;;;;-140.66;100.00;55571.53;5137603;27;20023;-72
2023/08/17 02:59:47;;;;;;;10.15;7.47;;;;;;;-140.66;100.00;55571.53;5137311;27;20027;-72
2023/08/17 03:03:31;;;;;;;12.65;7.55;;;;;;;-140.66;100.00;55571.53;5137071;27;20027;-71
2023/08/17 03:07:15;;;;;;;11.52;7.03;;;;;;;-140.66;100.00;55571.53;5138700;27;20448;-72
2023/08/17 03:10:59;;;;;;;12.27;7.13;;;;;;;-140.66;100.00;55571.53;5138113;27;20035;-72
2023/08/17 03:14:43;;;;;;;13.65;7.35;;;;;;;-140.66;100.00;55571.53;5137399;27;20109;-71
2023/08/17 03:18:28;;;;;;;12.73;7.65;;;;;;;-140.66;100.00;55571.53;5137082;27;20066;-71
2023/08/17 03:22:12;;;;;;;13.20;7.88;;;;;;;-140.66;100.00;55571.53;5136981;27;20034;-72
2023/08/17 03:25:56;;;;;;;10.27;7.78;;;;;;;-140.66;100.00;55571.53;5137463;27;20114;-72
2023/08/17 03:29:40;;;;;;;17.42;8.90;;;;;;;-140.66;100.00;55571.53;5137024;27;20029;-70
2023/08/17 03:33:24;;;;;;;12.20;7.63;;;;;;;-140.66;100.00;55571.53;5138329;27;20417;-71
2023/08/17 03:37:09;;;;;;;11.05;7.82;;;;;;;-140.66;100.00;55571.53;5138110;27;20023;-72
2023/08/17 03:40:53;;;;;;;14.88;8.15;;;;;;;-140.66;100.00;55571.53;5138524;27;20115;-71
2023/08/17 03:44:37;;;;;;;13.52;8.43;;;;;;;-140.66;100.00;55571.53;5139327;27;20480;-70
2023/08/17 03:48:22;;;;;;;14.30;8.23;;;;;;;-140.66;100.00;55571.53;5137593;27;20128;-70
2023/08/17 03:52:06;;;;;;;14.10;8.57;;;;;;;-140.66;100.00;55571.53;5138111;27;20023;-70
2023/08/17 03:55:51;;;;;;;11.35;8.20;;;;;;;-140.66;100.00;55571.53;5137664;27;20377;-70
2023/08/17 03:59:35;;;;;;;11.70;8.80;;;;;;;-140.66;100.00;55571.53;5137232;27;20394;-70
2023/08/17 04:03:19;;;;;;;16.95;8.38;;;;;;;-140.66;100.00;55571.53;5136495;27;20076;-71
2023/08/17 04:07:06;;;;;;;14.35;9.13;;;;;;;-140.66;100.00;55571.53;5138756;27;20042;-70
2023/08/17 04:10:50;;;;;;;14.70;8.95;;;;;;;-140.66;100.00;55571.53;5139016;27;20030;-71
2023/08/17 04:14:34;;;;;;;23.17;9.65;;;;;;;-140.66;100.00;55571.53;5139851;27;20034;-71
2023/08/17 04:18:19;;;;;;;16.42;10.23;;;;;;;-140.66;100.00;55571.53;5136286;27;20042;-71
2023/08/17 04:22:03;;;;;;;11.80;10.10;;;;;;;-140.66;100.00;55571.53;5136620;27;20054;-70
2023/08/17 04:25:48;;;;;;;12.90;9.55;;;;;;;-140.66;100.00;55571.53;5136650;27;20069;-71
2023/08/17 04:29:32;;;;;;;14.25;9.50;;;;;;;-140.66;100.00;55571.53;5136994;27;20031;-70
2023/08/17 04:33:16;;;;;;;11.90;9.15;;;;;;;-140.66;100.00;55571.53;5135637;27;20467;-70
2023/08/17 04:37:01;;;;;;;12.45;9.20;;;;;;;-140.66;100.00;55571.53;5137346;27;20352;-71
2023/08/17 04:40:45;;;;;;;17.70;9.27;;;;;;;-140.66;100.00;55571.53;5140914;27;20140;-70
2023/08/17 04:44:29;;;;;;;17.50;9.52;;;;;;;-140.66;100.00;55571.53;5140967;27;20088;-71
2023/08/17 04:48:13;;;;;;;14.57;9.52;;;;;;;-140.66;100.00;55571.53;5140177;27;20055;-72
2023/08/17 04:51:58;;;;;;;14.13;9.30;;;;;;;-140.66;100.00;55571.53;5139059;27;20360;-72
2023/08/17 04:55:42;;;;;;;14.13;10.05;;;;;;;-140.66;100.00;55571.53;5140162;27;20064;-72
2023/08/17 04:59:26;;;;;;;15.43;10.23;;;;;;;-140.66;100.00;55571.53;5138981;27;20033;-71
2023/08/17 05:03:10;;;;;;;14.25;9.73;;;;;;;-140.66;100.00;55571.53;5138002;27;20027;-71
2023/08/17 05:06:55;;;;;;;16.95;8.80;;;;;;;-140.66;100.00;55571.53;5137396;27;20031;-70
2023/08/17 05:10:39;;;;;;;17.08;9.70;;;;;;;-140.66;100.00;55571.53;5137588;27;20023;-70
2023/08/17 05:14:23;;;;;;;18.73;10.25;;;;;;;-140.66;100.00;55571.53;5137794;27;20054;-71
2023/08/17 05:18:07;;;;;;;16.90;9.85;;;;;;;-140.66;100.00;55571.53;5138298;27;20027;-72
2023/08/17 05:21:53;;;;;;;26.38;10.07;;;;;;;-140.66;100.00;55571.53;5136738;27;20031;-70
2023/08/17 05:25:37;;;;;;;16.55;10.07;;;;;;;-140.66;100.00;55571.53;5137780;27;20431;-72
2023/08/17 05:29:22;;;;;;;17.67;10.18;;;;;;;-140.66;100.00;55571.53;5137465;27;20468;-72
2023/08/17 05:33:06;;;;;;;26.77;12.70;;;;;;;-140.66;100.00;55571.53;5135800;27;20034;-72
2023/08/17 05:36:53;;;;;;;30.42;13.40;;;;;;;-140.66;100.00;55571.53;5136880;27;20114;-70
2023/08/17 05:40:38;;;;;;;35.67;14.23;;;;;;;-140.66;100.00;55571.53;5138457;27;20042;-70
2023/08/17 05:44:22;;;;;;;34.28;15.07;;;;;;;-140.66;100.00;55571.53;5138112;27;20031;-70
2023/08/17 05:48:06;;;;;;;25.48;12.82;;;;;;;-140.66;100.00;55571.53;5138418;27;20072;-69
2023/08/17 05:51:50;;;;;;;35.60;14.30;;;;;;;-140.66;100.00;55571.53;5140465;27;20529;-73
2023/08/17 05:55:35;;;;;;;33.42;13.88;;;;;;;-140.66;100.00;55571.53;5139125;27;20023;-70
2023/08/17 05:59:19;;;;;;;19.90;11.65;;;;;;;-140.66;100.00;55571.53;5137969;28;20042;-71
2023/08/17 06:03:04;;;;;;;41.20;11.75;;;;;;;-140.66;100.00;55571.53;5135851;28;20027;-70
2023/08/17 06:06:50;;;;;;;22.15;10.82;;;;;;;-140.66;100.00;55571.53;5135210;28;20027;-70
2023/08/17 06:10:35;;;;;;;20.83;11.65;;;;;;;-140.66;100.00;55571.53;5137263;27;20505;-71
2023/08/17 06:14:19;;;;;;;18.55;11.27;;;;;;;-140.66;100.00;55571.53;5137390;27;20087;-71
2023/08/17 06:18:04;;;;;;;21.55;11.90;;;;;;;-140.66;100.00;55571.53;5138875;27;20357;-71
2023/08/17 06:21:48;;;;;;;14.60;10.70;;;;;;;-140.66;100.00;55571.53;5138828;27;20023;-70
2023/08/17 06:25:32;;;;;;;23.75;10.82;;;;;;;-140.66;100.00;55571.53;5138653;27;20333;-71
2023/08/17 06:29:16;;;;;;;27.67;13.23;;;;;;;-140.66;100.00;55571.53;5138534;27;20108;-71
2023/08/17 06:33:00;;;;;;;34.92;13.10;;;;;;;-140.66;100.00;55571.53;5138851;27;20111;-71
2023/08/17 06:36:56;;;;;;;33.28;12.25;;;;;;;-140.66;100.00;55571.53;5140154;27;20027;-72
2023/08/17 06:40:40;;;;;;;20.27;11.88;;;;;;;-140.66;100.00;55571.53;5138768;27;20118;-71
2023/08/17 06:44:24;;;;;;;16.80;10.85;;;;;;;-140.66;100.00;55571.53;5137628;27;20030;-71
2023/08/17 06:48:08;;;;;;;15.07;10.57;;;;;;;-140.66;100.00;55571.53;5138090;27;20138;-70
2023/08/17 06:51:53;;;;;;;16.75;10.90;;;;;;;-140.66;100.00;55571.53;5139199;27;20027;-70
2023/08/17 06:55:37;;;;;;;16.33;11.00;;;;;;;-140.66;100.00;55571.53;5138545;27;20029;-71
2023/08/17 06:59:22;;;;;;;18.20;11.23;;;;;;;-140.66;100.00;55571.53;5138564;27;20051;-71
2023/08/17 07:03:06;;;;;;;21.85;12.07;;;;;;;-140.66;100.00;55571.53;5138442;27;20027;-72
2023/08/17 07:06:51;;;;;;;16.15;10.93;;;;;;;-140.66;100.00;55571.53;5139203;27;20031;-71
2023/08/17 07:10:35;;;;;;;16.63;10.48;;;;;;;-140.66;100.00;55571.53;5138546;27;20065;-71
2023/08/17 07:14:19;;;;;;;16.48;10.32;;;;;;;-140.66;100.00;55571.53;5136995;27;20453;-71
2023/08/17 07:18:04;;;;;;;11.68;10.05;;;;;;;-140.66;100.00;55571.53;5138415;27;20027;-70
2023/08/17 07:21:48;;;;;;;16.25;10.50;;;;;;;-140.66;100.00;55571.53;5135906;27;20049;-71
2023/08/17 07:25:32;;;;;;;16.35;10.05;;;;;;;-140.66;100.00;55571.53;5137829;27;20023;-71
2023/08/17 07:29:17;;;;;;;13.60;9.70;;;;;;;-140.66;100.00;55571.53;5138538;27;20510;-71
2023/08/17 07:33:01;;;;;;;13.75;9.75;;;;;;;-140.66;100.00;55571.53;5137453;27;20026;-71
2023/08/17 07:36:45;;;;;;;16.55;9.10;;;;;;;-140.66;100.00;55571.53;5138119;27;20026;-71
2023/08/17 07:40:30;;;;;;;12.02;9.55;;;;;;;-140.66;100.00;55571.53;5137034;27;20395;-71
2023/08/17 07:44:14;;;;;;;11.35;9.85;;;;;;;-140.66;100.00;55571.53;5137439;27;20481;-71
2023/08/17 07:47:58;;;;;;;13.05;9.70;;;;;;;-140.66;100.00;55571.53;5135996;27;20043;-70
2023/08/17 07:51:46;;;;;;;14.82;9.98;;;;;;;-140.66;100.00;55571.53;5136918;27;20102;-71
2023/08/17 07:55:30;;;;;;;12.30;9.10;;;;;;;-140.66;100.00;55571.53;5137604;27;20019;-72
2023/08/17 07:59:15;;;;;;;19.20;9.38;;;;;;;-140.66;100.00;55571.53;5137302;27;20115;-71
2023/08/17 08:02:59;;;;;;;12.93;9.63;;;;;;;-140.66;100.00;55571.53;5137000;27;20030;-71
2023/08/17 08:06:43;;;;;;;11.02;9.02;;;;;;;-140.66;100.00;55571.53;5149622;27;20019;-72
2023/08/17 08:10:28;;;;;;;14.15;10.32;;;;;;;-140.66;100.00;55571.53;5136438;27;20448;-71
2023/08/17 08:14:12;;;;;;;12.48;10.50;;;;;;;-140.66;100.00;55571.53;5136425;27;20065;-70
2023/08/17 08:17:56;;;;;;;9.18;8.20;;;;;;;-140.66;100.00;55571.53;5150289;27;20023;-71
2023/08/17 08:21:40;;;;;;;9.73;8.73;;;;;;;-140.66;100.00;55571.53;5135994;27;20463;-71
2023/08/17 08:25:24;;;;;;;13.90;8.90;;;;;;;-140.66;100.00;55571.53;5136022;27;20027;-70
2023/08/17 08:29:09;;;;;;;11.80;9.20;;;;;;;-140.66;100.00;55571.53;5136039;27;20436;-70
2023/08/17 08:32:57;;;;;;;11.05;8.40;;;;;;;-140.66;100.00;55571.53;5135689;27;20023;-71
2023/08/17 08:36:41;;;;;;;10.98;8.45;;;;;;;-140.66;100.00;55571.53;5136067;27;20019;-71
2023/08/17 08:40:27;;;;;;;18.75;9.60;;;;;;;-140.66;100.00;55571.53;5135139;27;20445;-70
2023/08/17 08:44:12;;;;;;;12.70;8.63;;;;;;;-140.66;100.00;55571.53;5136088;27;20111;-70
2023/08/17 08:47:57;;;;;;;16.10;7.85;;;;;;;-140.66;100.00;55571.53;5135568;27;20074;-71
2023/08/17 08:51:45;;;;;;;10.45;7.90;;;;;;;-140.66;100.00;55571.53;5135702;27;20023;-70
2023/08/17 08:55:33;;;;;;;10.93;7.82;;;;;;;-140.66;100.00;55571.53;5135781;27;20521;-72
2023/08/17 08:59:20;;;;;;;9.70;7.22;;;;;;;-140.66;100.00;55571.53;5134895;27;20041;-71
2023/08/17 09:03:04;;;;;;;12.07;7.80;;;;;;;-140.66;100.00;55571.53;5136006;27;20144;-71
2023/08/17 09:06:50;;;;;;;15.60;7.53;;;;;;;-140.66;100.00;55571.53;5135491;27;20023;-71
2023/08/17 09:10:35;;;;;;;15.55;11.68;;;;;;;-140.66;100.00;55571.53;5135774;27;20033;-71
2023/08/17 09:14:19;;;;;;;9.88;6.85;;;;;;;-140.66;100.00;55571.53;5134396;27;20023;-73
2023/08/17 09:18:05;;;;;;;8.45;6.72;;;;;;;-140.66;100.00;55571.53;5135506;27;20030;-72
2023/08/17 09:21:50;;;;;;;8.90;6.40;;;;;;;-140.66;100.00;55571.53;5135527;27;20497;-72
2023/08/17 09:25:34;;;;;;;9.15;6.72;;;;;;;-140.66;100.00;55571.53;5135545;27;20357;-73
2023/08/17 09:29:20;;;;;;;8.55;6.20;;;;;;;-140.66;100.00;55571.53;5134847;27;20050;-73
2023/08/17 09:33:05;;;;;;;7.93;6.00;;;;;;;-140.66;100.00;55571.53;5136406;27;20027;-72
2023/08/17 09:36:50;;;;;;;16.35;6.05;;;;;;;-140.66;100.00;55571.53;5134766;27;20101;-73
2023/08/17 09:40:35;;;;;;;11.18;6.05;;;;;;;-140.66;100.00;55571.53;5135597;27;20034;-73
2023/08/17 09:44:19;;;;;;;8.68;5.90;;;;;;;-140.66;100.00;55571.53;5134760;27;20078;-72
2023/08/17 09:48:04;;;;;;;8.98;5.93;;;;;;;-140.66;100.00;55571.53;5134530;27;20469;-72
2023/08/17 09:51:48;;;;;;;8.90;5.57;;;;;;;-140.66;100.00;55571.53;5134974;27;20346;-72
2023/08/17 09:55:33;;;;;;;6.95;5.65;;;;;;;-140.66;100.00;55571.53;5134882;27;20019;-72
2023/08/17 09:59:18;;;;;;;13.10;5.93;;;;;;;-140.66;100.00;55571.53;5134976;27;20122;-73
2023/08/17 10:03:03;;;;;;;10.18;5.78;;;;;;;-140.66;100.00;55571.53;5134514;28;20023;-73
2023/08/17 10:06:58;;;;;;;6.55;5.80;;;;;;;-140.66;100.00;55571.53;5134658;28;20064;-74
2023/08/17 10:10:45;;;;;;;7.68;5.43;;;;;;;-140.66;100.00;55571.53;5135909;28;20045;-73
2023/08/17 10:14:53;;;;;;;8.57;5.70;;;;;;;-140.66;100.00;55571.53;5134909;28;20023;-73
2023/08/17 10:19:10;;;;;;;13.70;5.72;;;;;;;-140.66;100.00;55571.53;5134005;28;20470;-73
2023/08/17 10:23:14;;;;;;;12.10;5.50;;;;;;;-140.66;100.00;55571.53;5134434;28;20042;-72
2023/08/17 10:27:03;;;;;;;7.20;4.88;;;;;;;-140.66;100.00;55571.53;5133879;28;20023;-73
2023/08/17 10:30:49;;;;;;;12.27;5.13;;;;;;;-140.66;100.00;55571.53;5134210;28;20095;-74
2023/08/17 10:34:34;;;;;;;8.32;5.30;;;;;;;-140.66;100.00;55571.53;5134786;28;20031;-72
2023/08/17 10:38:19;;;;;;;7.28;4.95;;;;;;;-140.66;100.00;55571.53;5134946;28;20080;-73
2023/08/17 10:42:32;;;;;;;5.45;4.82;;;;;;;-140.66;100.00;55571.53;5133697;28;20023;-72
2023/08/17 10:46:33;;;;;;;6.55;4.90;;;;;;;-140.66;100.00;55571.53;5134308;28;20027;-74
2023/08/17 10:50:24;;;;;;;5.43;4.60;;;;;;;-140.66;100.00;55571.53;5135130;28;20035;-72
2023/08/17 10:54:09;;;;;;;6.35;4.82;;;;;;;-140.66;100.00;55571.53;5135283;27;20476;-72
2023/08/17 10:57:53;;;;;;;6.18;4.68;;;;;;;-140.66;100.00;55571.53;5138503;27;20027;-73
2023/08/17 11:01:41;;;;;;;7.72;5.05;;;;;;;-140.66;100.00;55571.53;5138066;27;20110;-73
2023/08/17 11:05:34;;;;;;;6.35;4.75;;;;;;;-140.66;100.00;55571.53;5137723;27;20027;-73
2023/08/17 11:09:26;;;;;;;12.60;5.53;;;;;;;-140.66;100.00;55571.53;5136995;27;20035;-73
2023/08/17 11:13:23;;;;;;;7.25;4.63;;;;;;;-140.66;100.00;55571.53;5137537;27;20505;-72
2023/08/17 11:17:09;;;;;;;8.43;5.00;;;;;;;-140.66;100.00;55571.53;5137350;27;20027;-73
2023/08/17 11:20:53;;;;;;;6.70;4.50;;;;;;;-140.66;100.00;55571.53;5137659;27;20054;-73
2023/08/17 11:24:40;;;;;;;10.82;5.25;;;;;;;-140.66;100.00;55571.53;5137325;27;20456;-74
2023/08/17 11:28:24;;;;;;;9.88;4.70;;;;;;;-140.66;100.00;55571.53;5137428;27;20058;-74
2023/08/17 11:32:11;;;;;;;6.25;4.60;;;;;;;-140.66;100.00;55571.53;5137904;27;20088;-73
2023/08/17 11:35:55;;;;;;;12.32;4.63;;;;;;;-140.66;100.00;55571.53;5138010;27;20445;-74
2023/08/17 11:39:41;;;;;;;11.35;4.50;;;;;;;-140.66;100.00;55571.53;5135787;27;20056;-72
2023/08/17 11:43:26;;;;;;;15.90;4.75;;;;;;;-140.66;100.00;55571.53;5137592;27;20133;-73
2023/08/17 11:47:10;;;;;;;8.68;4.50;;;;;;;-140.66;100.00;55571.53;5136341;27;20035;-73
2023/08/17 11:50:59;;;;;;;8.60;4.55;;;;;;;-140.66;100.00;55571.53;5136380;27;20047;-73
2023/08/17 11:54:46;;;;;;;18.10;5.15;;;;;;;-140.66;100.00;55571.53;5136657;27;20393;-74
2023/08/17 11:58:41;;;;;;;6.18;4.40;;;;;;;-140.66;100.00;55571.53;5136237;27;20330;-74
2023/08/17 12:02:31;;;;;;;7.47;4.38;;;;;;;-140.66;100.00;55571.53;5137945;27;20072;-74
2023/08/17 12:06:21;;;;;;;9.40;4.07;;;;;;;-140.66;100.00;55571.53;5136849;27;20023;-73
2023/08/17 12:10:06;;;;;;;9.23;4.20;;;;;;;-140.66;100.00;55571.53;5137184;27;20031;-72
2023/08/17 12:13:51;;;;;;;9.45;4.28;;;;;;;-140.66;100.00;55571.53;5136301;27;20023;-73
2023/08/17 12:17:46;;;;;;;10.50;4.13;;;;;;;-140.66;100.00;55571.53;5135776;27;20050;-74
2023/08/17 12:21:33;;;;;;;7.50;3.97;;;;;;;-140.66;100.00;55571.53;5134827;27;20441;-72
2023/08/17 12:25:20;;;;;;;9.30;4.07;;;;;;;-140.66;100.00;55571.53;5135478;27;20023;-73
2023/08/17 12:29:05;;;;;;;6.80;4.25;;;;;;;-140.66;100.00;55571.53;5136120;27;20038;-73
2023/08/17 12:32:55;;;;;;;6.93;3.92;;;;;;;-140.66;100.00;55571.53;5135312;27;20060;-72
2023/08/17 12:36:42;;;;;;;8.65;3.58;;;;;;;-140.66;100.00;55571.53;5137549;27;20015;-72
2023/08/17 12:40:26;;;;;;;12.63;4.32;;;;;;;-140.66;100.00;55571.53;5136420;27;20491;-72
2023/08/17 12:44:13;;;;;;;7.65;4.07;;;;;;;-140.66;100.00;55571.53;5135445;27;20023;-72
2023/08/17 12:47:59;;;;;;;9.82;4.50;;;;;;;-140.66;100.00;55571.53;5135973;27;20131;-72
2023/08/17 12:51:43;;;;;;;9.27;3.90;;;;;;;-140.66;100.00;55571.53;5135508;27;20030;-73
2023/08/17 12:55:27;;;;;;;8.10;4.35;;;;;;;-140.66;100.00;55571.53;5140021;27;20019;-72
2023/08/17 12:59:11;;;;;;;9.20;4.38;;;;;;;-140.66;100.00;55571.53;5136146;27;20132;-73
2023/08/17 13:02:56;;;;;;;13.13;4.47;;;;;;;-140.66;100.00;55571.53;5136150;27;20031;-72
2023/08/17 13:06:40;;;;;;;12.07;9.13;;;;;;;-140.66;100.00;55571.53;5135726;27;20034;-73
2023/08/17 13:10:24;;;;;;;8.85;4.95;;;;;;;-140.66;100.00;55571.53;5135152;27;20091;-73
2023/08/17 13:14:08;;;;;;;6.60;4.22;;;;;;;-140.66;100.00;55571.53;5135204;27;20077;-73
2023/08/17 13:17:52;;;;;;;8.85;4.65;;;;;;;-140.66;100.00;55571.53;5135590;27;20386;-72
2023/08/17 13:21:37;;;;;;;5.20;4.47;;;;;;;-140.66;100.00;55571.53;5135001;27;20411;-72
2023/08/17 13:25:21;;;;;;;9.93;4.40;;;;;;;-140.66;100.00;55571.53;5134948;27;20057;-73
2023/08/17 13:29:05;;;;;;;9.85;4.55;;;;;;;-140.66;100.00;55571.53;5136241;27;20099;-73
2023/08/17 13:32:50;;;;;;;7.10;4.47;;;;;;;-140.66;100.00;55571.53;5136585;27;20419;-73
2023/08/17 13:36:35;;;;;;;9.93;4.57;;;;;;;-140.66;100.00;55571.53;5135229;27;20091;-72
2023/08/17 13:40:19;;;;;;;11.10;4.75;;;;;;;-140.66;100.00;55571.53;5134835;27;20456;-72
2023/08/17 13:44:06;;;;;;;5.78;4.22;;;;;;;-140.66;100.00;55571.53;5135987;27;20039;-72
2023/08/17 13:47:50;;;;;;;8.57;4.30;;;;;;;-140.66;100.00;55571.53;5135353;27;20075;-72
2023/08/17 13:51:36;;;;;;;5.90;4.35;;;;;;;-140.66;100.00;55571.53;5134640;27;20520;-72
2023/08/17 13:55:20;;;;;;;6.07;4.97;;;;;;;-140.66;100.00;55571.53;5135918;27;20031;-72
2023/08/17 13:59:04;;;;;;;14.00;5.15;;;;;;;-140.66;100.00;55571.53;5134591;27;20352;-71
2023/08/17 14:02:48;;;;;;;9.27;5.60;;;;;;;-140.66;100.00;55571.53;5134532;28;20015;-72
2023/08/17 14:06:32;;;;;;;10.82;5.72;;;;;;;-140.66;100.00;55571.53;5134713;28;20023;-71
2023/08/17 14:10:17;;;;;;;7.55;5.43;;;;;;;-140.66;100.00;55571.53;5134212;28;20035;-73
2023/08/17 14:14:01;;;;;;;23.40;5.88;;;;;;;-140.66;100.00;55571.53;5134089;28;20034;-73
2023/08/17 14:17:45;;;;;;;9.23;5.07;;;;;;;-140.66;100.00;55571.53;5135177;28;20027;-72
2023/08/17 14:21:29;;;;;;;11.20;5.55;;;;;;;-140.66;100.00;55571.53;5134300;28;20031;-73
2023/08/17 14:25:14;;;;;;;15.07;5.32;;;;;;;-140.66;100.00;55571.53;5134665;28;20081;-73
2023/08/17 14:29:02;;;;;;;9.63;5.55;;;;;;;-140.66;100.00;55571.53;5134396;28;20098;-72
2023/08/17 14:32:46;;;;;;;13.07;5.30;;;;;;;-140.66;100.00;55571.53;5138150;27;20034;-72
2023/08/17 14:36:30;;;;;;;7.88;5.13;;;;;;;-140.66;100.00;55571.53;5138961;27;20092;-72
2023/08/17 14:40:14;;;;;;;10.60;5.65;;;;;;;-140.66;100.00;55571.53;5138316;27;20042;-72
2023/08/17 14:43:59;;;;;;;11.80;5.25;;;;;;;-140.66;100.00;55571.53;5139283;27;20034;-73
2023/08/17 14:47:43;;;;;;;8.85;5.78;;;;;;;-140.66;100.00;55571.53;5139285;27;20134;-73
2023/08/17 14:51:28;;;;;;;13.27;5.43;;;;;;;-140.66;100.00;55571.53;5138651;27;20030;-73
2023/08/17 14:55:13;;;;;;;8.70;5.30;;;;;;;-140.66;100.00;55571.53;5138944;27;20318;-73
2023/08/17 14:58:57;;;;;;;9.32;5.32;;;;;;;-140.66;100.00;55571.53;5137277;27;20365;-73
2023/08/17 15:02:42;;;;;;;10.25;5.65;;;;;;;-140.66;100.00;55571.53;5138333;27;20033;-72
2023/08/17 15:06:27;;;;;;;8.57;5.53;;;;;;;-140.66;100.00;55571.53;5137823;27;20172;-72
2023/08/17 15:10:11;;;;;;;7.88;5.45;;;;;;;-140.66;100.00;55571.53;5137457;27;20024;-73
2023/08/17 15:13:55;;;;;;;8.98;5.68;;;;;;;-140.66;100.00;55571.53;5138371;27;20027;-72
2023/08/17 15:17:39;;;;;;;9.68;5.50;;;;;;;-140.66;100.00;55571.53;5137398;27;20087;-73
2023/08/17 15:21:24;;;;;;;17.33;6.18;;;;;;;-140.66;100.00;55571.53;5138339;27;20120;-72
2023/08/17 15:25:08;;;;;;;16.42;6.38;;;;;;;-140.66;100.00;55571.53;5137981;27;20027;-73
2023/08/17 15:28:52;;;;;;;9.65;5.50;;;;;;;-140.66;100.00;55571.53;5136854;27;20161;-73
2023/08/17 15:32:36;;;;;;;19.77;6.32;;;;;;;-140.66;100.00;55571.53;5137457;27;20441;-72
2023/08/17 15:36:26;;;;;;;6.22;5.07;;;;;;;-140.66;100.00;55571.53;5136434;27;20106;-72
2023/08/17 15:40:11;;;;;;;10.68;5.80;;;;;;;-140.66;100.00;55571.53;5136441;27;20464;-72
2023/08/17 15:43:55;;;;;;;8.63;5.28;;;;;;;-140.66;100.00;55571.53;5135291;27;20027;-72
2023/08/17 15:47:39;;;;;;;10.00;5.63;;;;;;;-140.66;100.00;55571.53;5136668;27;20069;-73
2023/08/17 15:51:27;;;;;;;9.18;5.20;;;;;;;-140.66;100.00;55571.53;5136881;27;20472;-72
2023/08/17 15:55:12;;;;;;;17.15;6.03;;;;;;;-140.66;100.00;55571.53;5137266;27;20043;-72
2023/08/17 15:58:57;;;;;;;9.70;5.43;;;;;;;-140.66;100.00;55571.53;5137026;27;20029;-73
2023/08/17 16:02:41;;;;;;;8.25;5.47;;;;;;;-140.66;100.00;55571.53;5137137;27;20118;-73
2023/08/17 16:06:25;;;;;;;11.07;5.15;;;;;;;-140.66;100.00;55571.53;5137022;27;20326;-72
2023/08/17 16:10:09;;;;;;;12.70;5.22;;;;;;;-140.66;100.00;55571.53;5136453;27;20076;-72
2023/08/17 16:13:54;;;;;;;20.55;5.60;;;;;;;-140.66;100.00;55571.53;5152294;27;20011;-72
2023/08/17 16:17:39;;;;;;;14.27;5.63;;;;;;;-140.66;100.00;55571.53;5137954;27;20091;-71
2023/08/17 16:21:23;;;;;;;15.43;5.63;;;;;;;-140.66;100.00;55571.53;5136171;27;20035;-72
2023/08/17 16:25:07;;;;;;;10.63;5.80;;;;;;;-140.66;100.00;55571.53;5135882;27;20026;-72
2023/08/17 16:28:52;;;;;;;9.30;5.30;;;;;;;-140.66;100.00;55571.53;5136752;27;20031;-72
2023/08/17 16:32:36;;;;;;;20.05;6.30;;;;;;;-140.66;100.00;55571.53;5136511;27;20108;-72
2023/08/17 16:36:20;;;;;;;13.25;5.90;;;;;;;-140.66;100.00;55571.53;5137118;27;20102;-72
2023/08/17 16:40:05;;;;;;;9.57;5.70;;;;;;;-140.66;100.00;55571.53;5135354;27;20031;-72
2023/08/17 16:43:49;;;;;;;10.93;5.57;;;;;;;-140.66;100.00;55571.53;5139257;27;20038;-72
2023/08/17 16:47:33;;;;;;;9.95;5.60;;;;;;;-140.66;100.00;55571.53;5144329;27;20039;-72
2023/08/17 16:51:18;;;;;;;9.20;5.65;;;;;;;-140.66;100.00;55571.53;5136208;27;20066;-72
2023/08/17 16:55:02;;;;;;;8.88;5.35;;;;;;;-140.66;100.00;55571.53;5135818;27;20125;-72
2023/08/17 16:58:46;;;;;;;9.80;5.68;;;;;;;-140.66;100.00;55571.53;5136183;27;20052;-73